createdAt,value
2022-08-30T00:00:10.436Z,0.00
2022-08-30T00:01:14.182Z,0.00
2022-08-30T00:02:10.462Z,0.00
2022-08-30T00:03:10.688Z,0.00
2022-08-30T00:04:10.390Z,0.00
2022-08-30T00:05:10.372Z,0.00
2022-08-30T00:06:10.359Z,0.00
2022-08-30T00:07:10.350Z,0.00
2022-08-30T00:08:10.331Z,0.00
2022-08-30T00:09:10.372Z,0.00
2022-08-30T00:10:10.302Z,0.00
2022-08-30T00:11:10.295Z,0.00
2022-08-30T00:12:10.293Z,0.00
2022-08-30T00:13:10.271Z,0.00
2022-08-30T00:14:10.252Z,0.00
2022-08-30T00:15:10.362Z,0.00
2022-08-30T00:16:10.307Z,0.00
2022-08-30T00:17:10.213Z,0.00
2022-08-30T00:18:10.215Z,0.00
2022-08-30T00:19:10.214Z,0.00
2022-08-30T00:20:10.184Z,0.00
2022-08-30T00:21:10.197Z,0.00
2022-08-30T00:22:10.157Z,0.00
2022-08-30T00:23:10.135Z,0.00
2022-08-30T00:24:10.144Z,0.00
2022-08-30T00:25:10.117Z,0.00
2022-08-30T00:26:10.105Z,0.00
2022-08-30T00:27:10.120Z,0.00
2022-08-30T00:28:10.086Z,0.00
2022-08-30T00:29:10.081Z,0.00
2022-08-30T00:30:10.057Z,0.00
2022-08-30T00:31:10.103Z,0.00
2022-08-30T00:32:10.032Z,0.00
2022-08-30T00:33:10.052Z,0.00
2022-08-30T00:34:10.026Z,0.00
2022-08-30T00:35:09.989Z,0.00
2022-08-30T00:36:09.978Z,0.00
2022-08-30T00:37:09.987Z,0.00
2022-08-30T00:38:09.952Z,0.00
2022-08-30T00:39:09.972Z,0.00
2022-08-30T00:40:09.977Z,0.00
2022-08-30T00:41:09.920Z,0.00
2022-08-30T00:42:09.901Z,0.00
2022-08-30T00:43:09.939Z,0.00
2022-08-30T00:44:09.872Z,0.00
2022-08-30T00:45:09.928Z,0.00
2022-08-30T00:46:09.901Z,0.00
2022-08-30T00:47:09.836Z,0.00
2022-08-30T00:48:09.824Z,0.00
2022-08-30T00:49:09.818Z,0.00
2022-08-30T00:50:09.805Z,0.00
2022-08-30T00:51:09.814Z,0.00
2022-08-30T00:52:09.774Z,0.00
2022-08-30T00:53:09.826Z,0.00
2022-08-30T00:54:09.747Z,0.00
2022-08-30T00:55:09.737Z,0.00
2022-08-30T00:56:09.717Z,0.00
2022-08-30T00:57:09.745Z,0.00
2022-08-30T00:58:09.711Z,0.00
2022-08-30T00:59:09.688Z,0.00
2022-08-30T01:00:09.668Z,0.00
2022-08-30T01:01:09.737Z,0.00
2022-08-30T01:02:09.684Z,0.00
2022-08-30T01:03:09.787Z,0.00
2022-08-30T01:04:09.621Z,0.00
2022-08-30T01:05:09.609Z,0.00
2022-08-30T01:06:09.589Z,0.00
2022-08-30T01:07:09.581Z,0.00
2022-08-30T01:08:09.596Z,0.00
2022-08-30T01:09:09.583Z,0.00
2022-08-30T01:10:09.552Z,0.00
2022-08-30T01:11:09.533Z,0.00
2022-08-30T01:12:09.522Z,0.00
2022-08-30T01:13:09.522Z,0.00
2022-08-30T01:14:09.493Z,0.00
2022-08-30T01:15:09.513Z,0.00
2022-08-30T01:16:09.549Z,0.00
2022-08-30T01:17:09.462Z,0.00
2022-08-30T01:18:09.444Z,0.00
2022-08-30T01:19:09.444Z,0.00
2022-08-30T01:20:09.415Z,0.00
2022-08-30T01:21:09.425Z,0.00
2022-08-30T01:22:09.395Z,0.00
2022-08-30T01:23:09.491Z,0.00
2022-08-30T01:24:09.369Z,0.00
2022-08-30T01:25:09.364Z,0.00
2022-08-30T01:26:09.338Z,0.00
2022-08-30T01:27:09.453Z,0.00
2022-08-30T01:28:09.318Z,0.00
2022-08-30T01:29:09.308Z,0.00
2022-08-30T01:30:09.289Z,0.00
2022-08-30T01:31:09.341Z,0.00
2022-08-30T01:32:09.290Z,0.00
2022-08-30T01:33:09.417Z,0.00
2022-08-30T01:34:09.249Z,0.00
2022-08-30T01:35:09.229Z,0.00
2022-08-30T01:36:09.221Z,0.00
2022-08-30T01:37:09.209Z,0.00
2022-08-30T01:38:09.190Z,0.00
2022-08-30T01:39:09.210Z,0.00
2022-08-30T01:40:09.236Z,0.00
2022-08-30T01:41:09.155Z,0.00
2022-08-30T01:42:09.133Z,0.00
2022-08-30T01:43:09.139Z,0.00
2022-08-30T01:44:09.122Z,0.00
2022-08-30T01:45:09.124Z,0.00
2022-08-30T01:46:09.137Z,0.00
2022-08-30T01:47:09.074Z,0.00
2022-08-30T01:48:09.063Z,0.00
2022-08-30T01:49:09.064Z,0.00
2022-08-30T01:50:09.043Z,0.00
2022-08-30T01:51:09.066Z,0.00
2022-08-30T01:52:09.015Z,0.00
2022-08-30T01:53:09.100Z,0.00
2022-08-30T01:54:08.985Z,0.00
2022-08-30T01:55:08.976Z,0.00
2022-08-30T01:56:08.966Z,0.00
2022-08-30T01:57:08.978Z,0.00
2022-08-30T01:58:08.937Z,0.00
2022-08-30T01:59:08.928Z,0.00
2022-08-30T02:00:08.909Z,0.00
2022-08-30T02:01:08.924Z,0.00
2022-08-30T02:02:08.887Z,0.00
2022-08-30T02:03:08.929Z,0.00
2022-08-30T02:04:08.986Z,0.00
2022-08-30T02:05:08.858Z,0.00
2022-08-30T02:06:08.838Z,0.00
2022-08-30T02:07:08.829Z,0.00
2022-08-30T02:08:08.810Z,0.00
2022-08-30T02:09:08.847Z,0.00
2022-08-30T02:10:08.781Z,0.00
2022-08-30T02:11:08.772Z,0.00
2022-08-30T02:12:08.753Z,0.00
2022-08-30T02:13:08.773Z,0.00
2022-08-30T02:14:08.732Z,0.00
2022-08-30T02:15:08.743Z,0.00
2022-08-30T02:16:08.716Z,0.00
2022-08-30T02:17:08.723Z,0.00
2022-08-30T02:18:08.683Z,0.00
2022-08-30T02:19:08.673Z,0.00
2022-08-30T02:20:08.667Z,0.00
2022-08-30T02:21:08.682Z,0.00
2022-08-30T02:22:08.635Z,0.00
2022-08-30T02:23:08.615Z,0.00
2022-08-30T02:24:08.605Z,0.00
2022-08-30T02:25:11.238Z,0.00
2022-08-30T02:26:09.626Z,0.00
2022-08-30T02:27:08.572Z,0.00
2022-08-30T02:28:08.558Z,0.00
2022-08-30T02:29:08.547Z,0.00
2022-08-30T02:30:08.548Z,0.00
2022-08-30T02:31:08.572Z,0.00
2022-08-30T02:32:08.521Z,0.00
2022-08-30T02:33:08.491Z,0.00
2022-08-30T02:34:08.490Z,0.00
2022-08-30T02:35:08.484Z,0.00
2022-08-30T02:36:08.460Z,0.00
2022-08-30T02:37:08.451Z,0.00
2022-08-30T02:38:08.461Z,0.00
2022-08-30T02:39:08.436Z,0.00
2022-08-30T02:40:08.488Z,0.00
2022-08-30T02:41:08.412Z,0.00
2022-08-30T02:42:08.383Z,0.00
2022-08-30T02:43:08.374Z,0.00
2022-08-30T02:44:08.473Z,0.00
2022-08-30T02:45:08.342Z,0.00
2022-08-30T02:46:08.417Z,0.00
2022-08-30T02:47:08.320Z,0.00
2022-08-30T02:48:08.303Z,0.00
2022-08-30T02:49:30.251Z,0.00
2022-08-30T02:50:09.314Z,0.00
2022-08-30T02:51:09.299Z,0.00
2022-08-30T02:52:08.254Z,0.00
2022-08-30T02:53:08.244Z,0.00
2022-08-30T02:54:08.226Z,0.00
2022-08-30T02:55:08.217Z,0.00
2022-08-30T02:56:08.247Z,0.00
2022-08-30T02:57:08.197Z,0.00
2022-08-30T02:58:09.186Z,0.00
2022-08-30T02:59:08.168Z,0.00
2022-08-30T03:00:08.156Z,0.00
2022-08-30T03:01:08.195Z,0.00
2022-08-30T03:02:08.157Z,0.00
2022-08-30T03:03:08.127Z,0.00
2022-08-30T03:04:08.110Z,0.00
2022-08-30T03:05:08.088Z,0.00
2022-08-30T03:06:08.069Z,0.00
2022-08-30T03:07:08.074Z,0.00
2022-08-30T03:08:08.072Z,0.00
2022-08-30T03:09:08.050Z,0.00
2022-08-30T03:10:08.020Z,0.00
2022-08-30T03:11:08.010Z,0.00
2022-08-30T03:12:08.007Z,0.00
2022-08-30T03:13:07.991Z,0.00
2022-08-30T03:14:07.997Z,0.00
2022-08-30T03:15:07.963Z,0.00
2022-08-30T03:16:07.965Z,0.00
2022-08-30T03:17:11.234Z,0.00
2022-08-30T03:18:08.928Z,0.00
2022-08-30T03:19:07.916Z,0.00
2022-08-30T03:20:07.921Z,0.00
2022-08-30T03:21:07.894Z,0.00
2022-08-30T03:22:07.883Z,0.00
2022-08-30T03:23:07.879Z,0.00
2022-08-30T03:24:07.845Z,0.00
2022-08-30T03:25:07.844Z,0.00
2022-08-30T03:26:07.858Z,0.00
2022-08-30T03:27:07.814Z,0.00
2022-08-30T03:28:07.796Z,0.00
2022-08-30T03:29:07.813Z,0.00
2022-08-30T03:30:07.776Z,0.00
2022-08-30T03:31:07.773Z,0.00
2022-08-30T03:32:07.837Z,0.00
2022-08-30T03:33:07.737Z,0.00
2022-08-30T03:34:07.728Z,0.00
2022-08-30T03:35:07.744Z,0.00
2022-08-30T03:36:07.730Z,0.00
2022-08-30T03:37:07.704Z,0.00
2022-08-30T03:38:07.701Z,0.00
2022-08-30T03:39:07.660Z,0.00
2022-08-30T03:40:07.716Z,0.00
2022-08-30T03:41:07.639Z,0.00
2022-08-30T03:42:07.621Z,0.00
2022-08-30T03:43:07.610Z,0.00
2022-08-30T03:44:07.645Z,0.00
2022-08-30T03:45:07.583Z,0.00
2022-08-30T03:46:07.634Z,0.00
2022-08-30T03:47:07.560Z,0.00
2022-08-30T03:48:07.552Z,0.00
2022-08-30T03:49:07.534Z,0.00
2022-08-30T03:50:07.543Z,0.00
2022-08-30T03:51:07.524Z,0.00
2022-08-30T03:52:07.493Z,0.00
2022-08-30T03:53:07.484Z,0.00
2022-08-30T03:54:07.485Z,0.00
2022-08-30T03:55:07.459Z,1.00
2022-08-30T03:56:07.575Z,1.00
2022-08-30T03:57:07.447Z,1.00
2022-08-30T03:58:07.416Z,0.00
2022-08-30T03:59:07.407Z,0.00
2022-08-30T04:00:07.406Z,0.00
2022-08-30T04:01:07.432Z,2.00
2022-08-30T04:02:07.424Z,2.00
2022-08-30T04:03:07.358Z,2.00
2022-08-30T04:04:07.350Z,4.00
2022-08-30T04:05:07.328Z,0.00
2022-08-30T04:06:07.316Z,4.00
2022-08-30T04:07:07.317Z,4.00
2022-08-30T04:08:07.316Z,2.00
2022-08-30T04:09:07.281Z,1.00
2022-08-30T04:10:07.272Z,9.00
2022-08-30T04:11:07.250Z,15.00
2022-08-30T04:12:07.241Z,9.00
2022-08-30T04:13:07.232Z,11.00
2022-08-30T04:14:07.262Z,6.00
2022-08-30T04:15:07.222Z,18.00
2022-08-30T04:16:07.205Z,19.00
2022-08-30T04:17:07.188Z,23.00
2022-08-30T04:18:07.162Z,28.00
2022-08-30T04:19:07.362Z,25.00
2022-08-30T04:20:07.162Z,38.00
2022-08-30T04:21:08.802Z,51.00
2022-08-30T04:22:07.113Z,44.00
2022-08-30T04:23:07.108Z,61.00
2022-08-30T04:24:07.096Z,70.00
2022-08-30T04:25:07.089Z,84.00
2022-08-30T04:26:07.084Z,96.00
2022-08-30T04:27:07.062Z,111.00
2022-08-30T04:28:07.035Z,119.00
2022-08-30T04:29:07.025Z,137.00
2022-08-30T04:30:07.009Z,168.00
2022-08-30T04:31:06.997Z,170.00
2022-08-30T04:32:08.109Z,202.00
2022-08-30T04:33:06.988Z,217.00
2022-08-30T04:34:06.958Z,249.00
2022-08-30T04:35:06.956Z,280.00
2022-08-30T04:36:06.928Z,308.00
2022-08-30T04:37:06.927Z,342.00
2022-08-30T04:38:06.938Z,371.00
2022-08-30T04:39:06.900Z,415.00
2022-08-30T04:40:06.916Z,453.00
2022-08-30T04:41:06.882Z,487.00
2022-08-30T04:42:06.874Z,534.00
2022-08-30T04:43:06.849Z,583.00
2022-08-30T04:44:06.869Z,625.00
2022-08-30T04:45:06.829Z,668.00
2022-08-30T04:46:06.918Z,721.00
2022-08-30T04:47:06.807Z,764.00
2022-08-30T04:48:06.782Z,816.00
2022-08-30T04:49:06.773Z,859.00
2022-08-30T04:50:06.780Z,902.00
2022-08-30T04:51:06.742Z,956.00
2022-08-30T04:52:06.734Z,1006.00
2022-08-30T04:53:06.724Z,1054.00
2022-08-30T04:54:06.723Z,1097.00
2022-08-30T04:55:06.697Z,1152.00
2022-08-30T04:56:06.719Z,1205.00
2022-08-30T04:57:06.674Z,1266.00
2022-08-30T04:58:06.667Z,1318.00
2022-08-30T04:59:06.644Z,1371.00
2022-08-30T05:00:06.640Z,1427.00
2022-08-30T05:01:06.668Z,1484.00
2022-08-30T05:02:06.775Z,1559.00
2022-08-30T05:03:06.586Z,1647.00
2022-08-30T05:04:06.578Z,1730.00
2022-08-30T05:05:06.580Z,1789.00
2022-08-30T05:06:06.557Z,1846.00
2022-08-30T05:07:06.547Z,1899.00
2022-08-30T05:08:06.558Z,1960.00
2022-08-30T05:09:06.518Z,2019.00
2022-08-30T05:10:10.949Z,2080.00
2022-08-30T05:11:06.489Z,2143.00
2022-08-30T05:12:06.479Z,2213.00
2022-08-30T05:13:06.533Z,2275.00
2022-08-30T05:14:06.483Z,2347.00
2022-08-30T05:15:06.448Z,2419.00
2022-08-30T05:16:06.506Z,2489.00
2022-08-30T05:17:06.411Z,2548.00
2022-08-30T05:18:06.404Z,2607.00
2022-08-30T05:19:06.393Z,2667.00
2022-08-30T05:20:06.412Z,2725.00
2022-08-30T05:21:06.362Z,2778.00
2022-08-30T05:22:06.377Z,2836.00
2022-08-30T05:23:06.342Z,2890.00
2022-08-30T05:24:06.323Z,2944.00
2022-08-30T05:25:06.326Z,3000.00
2022-08-30T05:26:06.342Z,3055.00
2022-08-30T05:27:06.303Z,3113.00
2022-08-30T05:28:06.276Z,3166.00
2022-08-30T05:29:06.264Z,3217.00
2022-08-30T05:30:06.326Z,3267.00
2022-08-30T05:31:06.251Z,3322.00
2022-08-30T05:32:07.255Z,3374.00
2022-08-30T05:33:06.220Z,3424.00
2022-08-30T05:34:06.202Z,3476.00
2022-08-30T05:35:06.189Z,3525.00
2022-08-30T05:36:06.197Z,3571.00
2022-08-30T05:37:06.158Z,3611.00
2022-08-30T05:38:06.197Z,3660.00
2022-08-30T05:39:06.138Z,3708.00
2022-08-30T05:40:07.472Z,3751.00
2022-08-30T05:41:08.496Z,3797.00
2022-08-30T05:42:06.099Z,3843.00
2022-08-30T05:43:06.099Z,3892.00
2022-08-30T05:44:06.101Z,3946.00
2022-08-30T05:45:06.063Z,3992.00
2022-08-30T05:46:06.060Z,4035.00
2022-08-30T05:47:06.057Z,4085.00
2022-08-30T05:48:06.045Z,4128.00
2022-08-30T05:49:06.036Z,4177.00
2022-08-30T05:50:06.133Z,4225.00
2022-08-30T05:51:05.984Z,4280.00
2022-08-30T05:52:05.981Z,4327.00
2022-08-30T05:53:05.963Z,4369.00
2022-08-30T05:54:05.983Z,4412.00
2022-08-30T05:55:05.932Z,4464.00
2022-08-30T05:56:05.986Z,4497.00
2022-08-30T05:57:05.936Z,4543.00
2022-08-30T05:58:05.915Z,4580.00
2022-08-30T05:59:05.937Z,4623.00
2022-08-30T06:00:05.956Z,4664.00
2022-08-30T06:01:05.865Z,4706.00
2022-08-30T06:02:05.947Z,4752.00
2022-08-30T06:03:05.899Z,4777.00
2022-08-30T06:04:05.830Z,4816.00
2022-08-30T06:05:05.831Z,4857.00
2022-08-30T06:06:08.265Z,4901.00
2022-08-30T06:07:05.807Z,4950.00
2022-08-30T06:08:05.822Z,4993.00
2022-08-30T06:09:05.954Z,5033.00
2022-08-30T06:10:05.766Z,5055.00
2022-08-30T06:11:05.747Z,5100.00
2022-08-30T06:12:05.752Z,5143.00
2022-08-30T06:13:05.708Z,5186.00
2022-08-30T06:14:05.731Z,5225.00
2022-08-30T06:15:05.691Z,5262.00
2022-08-30T06:16:05.716Z,5293.00
2022-08-30T06:17:05.701Z,5325.00
2022-08-30T06:18:05.660Z,5362.00
2022-08-30T06:19:07.597Z,5394.00
2022-08-30T06:20:05.741Z,5437.00
2022-08-30T06:21:11.112Z,5468.00
2022-08-30T06:22:06.636Z,5502.00
2022-08-30T06:23:05.597Z,5529.00
2022-08-30T06:24:05.843Z,5564.00
2022-08-30T06:25:07.517Z,5592.00
2022-08-30T06:26:06.364Z,5627.00
2022-08-30T06:27:06.373Z,5658.00
2022-08-30T06:28:06.324Z,5660.00
2022-08-30T06:29:05.532Z,5697.00
2022-08-30T06:30:05.518Z,5722.00
2022-08-30T06:31:05.636Z,5749.00
2022-08-30T06:32:06.007Z,5781.00
2022-08-30T06:33:06.246Z,5803.00
2022-08-30T06:34:06.267Z,5840.00
2022-08-30T06:35:06.228Z,5881.00
2022-08-30T06:36:06.263Z,5899.00
2022-08-30T06:37:06.198Z,5920.00
2022-08-30T06:38:06.228Z,5959.00
2022-08-30T06:39:05.405Z,5964.00
2022-08-30T06:40:05.638Z,6005.00
2022-08-30T06:41:05.358Z,6031.00
2022-08-30T06:42:05.391Z,6071.00
2022-08-30T06:43:05.711Z,6102.00
2022-08-30T06:44:05.403Z,6119.00
2022-08-30T06:45:10.325Z,6147.00
2022-08-30T06:46:06.144Z,6186.00
2022-08-30T06:47:06.076Z,6205.00
2022-08-30T06:48:06.073Z,6229.00
2022-08-30T06:49:05.275Z,6277.00
2022-08-30T06:50:07.753Z,6301.00
2022-08-30T06:51:06.373Z,6322.00
2022-08-30T06:52:05.982Z,6358.00
2022-08-30T06:53:05.311Z,6399.00
2022-08-30T06:54:05.225Z,6435.00
2022-08-30T06:55:05.737Z,6451.00
2022-08-30T06:56:06.572Z,6475.00
2022-08-30T06:57:05.955Z,6503.00
2022-08-30T06:58:05.171Z,6534.00
2022-08-30T06:59:05.135Z,6558.00
2022-08-30T07:00:05.132Z,6579.00
2022-08-30T07:01:05.905Z,6617.00
2022-08-30T07:02:06.074Z,6653.00
2022-08-30T07:03:05.943Z,6686.00
2022-08-30T07:04:06.113Z,6704.00
2022-08-30T07:05:05.871Z,6725.00
2022-08-30T07:06:05.849Z,6758.00
2022-08-30T07:07:05.839Z,6785.00
2022-08-30T07:08:05.865Z,6802.00
2022-08-30T07:09:05.910Z,6825.00
2022-08-30T07:10:05.052Z,6847.00
2022-08-30T07:11:04.992Z,6898.00
2022-08-30T07:12:08.189Z,6906.00
2022-08-30T07:13:05.406Z,6952.00
2022-08-30T07:14:05.313Z,6954.00
2022-08-30T07:15:06.273Z,6990.00
2022-08-30T07:16:07.781Z,7012.00
2022-08-30T07:17:04.997Z,7036.00
2022-08-30T07:18:05.849Z,7068.00
2022-08-30T07:19:05.673Z,7097.00
2022-08-30T07:20:05.576Z,7120.00
2022-08-30T07:21:05.668Z,7154.00
2022-08-30T07:22:05.669Z,7183.00
2022-08-30T07:23:05.144Z,7169.00
2022-08-30T07:24:05.626Z,7216.00
2022-08-30T07:25:05.599Z,7238.00
2022-08-30T07:26:05.837Z,7254.00
2022-08-30T07:27:04.911Z,7236.00
2022-08-30T07:28:04.913Z,7279.00
2022-08-30T07:29:05.601Z,7312.00
2022-08-30T07:30:07.273Z,7312.00
2022-08-30T07:31:05.613Z,7353.00
2022-08-30T07:32:05.595Z,7360.00
2022-08-30T07:33:05.521Z,7389.00
2022-08-30T07:34:06.715Z,7400.00
2022-08-30T07:35:05.084Z,7425.00
2022-08-30T07:36:05.518Z,7451.00
2022-08-30T07:37:04.752Z,7460.00
2022-08-30T07:38:05.491Z,7479.00
2022-08-30T07:39:05.417Z,7514.00
2022-08-30T07:40:05.481Z,7533.00
2022-08-30T07:41:04.755Z,7540.00
2022-08-30T07:42:06.145Z,7563.00
2022-08-30T07:43:05.400Z,7600.00
2022-08-30T07:44:05.415Z,7603.00
2022-08-30T07:45:05.412Z,7655.00
2022-08-30T07:46:05.411Z,7658.00
2022-08-30T07:47:05.338Z,7686.00
2022-08-30T07:48:05.308Z,7713.00
2022-08-30T07:49:05.301Z,7735.00
2022-08-30T07:50:06.447Z,7747.00
2022-08-30T07:51:05.638Z,7781.00
2022-08-30T07:52:07.104Z,7801.00
2022-08-30T07:53:07.909Z,7853.00
2022-08-30T07:54:06.256Z,7878.00
2022-08-30T07:55:05.217Z,7903.00
2022-08-30T07:56:05.340Z,7942.00
2022-08-30T07:57:05.211Z,7979.00
2022-08-30T07:58:05.206Z,8029.00
2022-08-30T07:59:05.194Z,8026.00
2022-08-30T08:00:05.149Z,8118.00
2022-08-30T08:01:05.152Z,8173.00
2022-08-30T08:02:06.511Z,8236.00
2022-08-30T08:03:05.285Z,8283.00
2022-08-30T08:04:05.103Z,8303.00
2022-08-30T08:05:05.083Z,8420.00
2022-08-30T08:06:05.102Z,8493.00
2022-08-30T08:07:05.076Z,8581.00
2022-08-30T08:08:05.086Z,8622.00
2022-08-30T08:09:04.286Z,8687.00
2022-08-30T08:10:05.034Z,8715.00
2022-08-30T08:11:05.039Z,8709.00
2022-08-30T08:12:06.735Z,8758.00
2022-08-30T08:13:04.526Z,8900.00
2022-08-30T08:14:05.076Z,8855.00
2022-08-30T08:15:06.775Z,8898.00
2022-08-30T08:16:05.082Z,8866.00
2022-08-30T08:17:04.996Z,8924.00
2022-08-30T08:18:04.257Z,8959.00
2022-08-30T08:19:04.910Z,8936.00
2022-08-30T08:20:04.248Z,8998.00
2022-08-30T08:21:04.200Z,9063.00
2022-08-30T08:22:19.953Z,8896.00
2022-08-30T08:23:07.083Z,8203.00
2022-08-30T08:24:05.053Z,9020.00
2022-08-30T08:25:06.169Z,9046.00
2022-08-30T08:26:04.294Z,9083.00
2022-08-30T08:27:04.121Z,9085.00
2022-08-30T08:28:04.054Z,9111.00
2022-08-30T08:29:04.795Z,9103.00
2022-08-30T08:30:03.998Z,9142.00
2022-08-30T08:31:04.054Z,9150.00
2022-08-30T08:32:04.818Z,9168.00
2022-08-30T08:33:04.756Z,9163.00
2022-08-30T08:34:04.743Z,9204.00
2022-08-30T08:35:04.714Z,9211.00
2022-08-30T08:36:08.802Z,9224.00
2022-08-30T08:37:03.994Z,9218.00
2022-08-30T08:38:03.945Z,9237.00
2022-08-30T08:39:03.930Z,9265.00
2022-08-30T08:40:03.942Z,9262.00
2022-08-30T08:41:03.850Z,9298.00
2022-08-30T08:42:05.912Z,9301.00
2022-08-30T08:43:04.601Z,9284.00
2022-08-30T08:44:03.885Z,9312.00
2022-08-30T08:45:08.780Z,9323.00
2022-08-30T08:46:04.947Z,9340.00
2022-08-30T08:47:04.264Z,9276.00
2022-08-30T08:48:04.264Z,9296.00
2022-08-30T08:49:03.838Z,9245.00
2022-08-30T08:50:04.189Z,9264.00
2022-08-30T08:51:05.726Z,9295.00
2022-08-30T08:52:03.982Z,9181.00
2022-08-30T08:53:04.540Z,9338.00
2022-08-30T08:54:04.778Z,9393.00
2022-08-30T08:55:04.555Z,9163.00
2022-08-30T08:56:04.476Z,9046.00
2022-08-30T08:57:03.797Z,9189.00
2022-08-30T08:58:03.697Z,9157.00
2022-08-30T08:59:03.636Z,9221.00
2022-08-30T09:00:04.397Z,9246.00
2022-08-30T09:01:03.782Z,9237.00
2022-08-30T09:02:04.498Z,9304.00
2022-08-30T09:03:03.772Z,9309.00
2022-08-30T09:04:04.447Z,9305.00
2022-08-30T09:05:04.410Z,9251.00
2022-08-30T09:06:04.359Z,9099.00
2022-08-30T09:07:03.590Z,9189.00
2022-08-30T09:08:06.629Z,9134.00
2022-08-30T09:09:04.632Z,9317.00
2022-08-30T09:10:04.273Z,9431.00
2022-08-30T09:11:04.253Z,9409.00
2022-08-30T09:12:04.306Z,9377.00
2022-08-30T09:13:04.342Z,9254.00
2022-08-30T09:14:06.120Z,9300.00
2022-08-30T09:15:04.250Z,9263.00
2022-08-30T09:16:03.750Z,9268.00
2022-08-30T09:17:03.492Z,9343.00
2022-08-30T09:18:03.390Z,9216.00
2022-08-30T09:19:03.688Z,9296.00
2022-08-30T09:20:04.170Z,9298.00
2022-08-30T09:21:03.619Z,9343.00
2022-08-30T09:22:04.119Z,9275.00
2022-08-30T09:23:03.401Z,9325.00
2022-08-30T09:24:04.093Z,9290.00
2022-08-30T09:25:03.301Z,9362.00
2022-08-30T09:26:04.129Z,9321.00
2022-08-30T09:27:03.330Z,9280.00
2022-08-30T09:28:04.047Z,9255.00
2022-08-30T09:29:04.025Z,9331.00
2022-08-30T09:30:04.020Z,9349.00
2022-08-30T09:31:03.658Z,9349.00
2022-08-30T09:32:24.808Z,9341.00
2022-08-30T09:33:04.989Z,9284.00
2022-08-30T09:34:03.975Z,9317.00
2022-08-30T09:35:03.206Z,9362.00
2022-08-30T09:36:03.375Z,9195.00
2022-08-30T09:37:03.216Z,9190.00
2022-08-30T09:38:03.193Z,9224.00
2022-08-30T09:39:03.914Z,9179.00
2022-08-30T09:40:05.645Z,9039.00
2022-08-30T09:41:04.014Z,9121.00
2022-08-30T09:42:05.116Z,9115.00
2022-08-30T09:43:03.883Z,9032.00
2022-08-30T09:44:03.932Z,9097.00
2022-08-30T09:45:03.847Z,9019.00
2022-08-30T09:46:03.108Z,9042.00
2022-08-30T09:47:03.121Z,9096.00
2022-08-30T09:48:03.812Z,9075.00
2022-08-30T09:49:03.877Z,9043.00
2022-08-30T09:50:03.152Z,8938.00
2022-08-30T09:51:03.782Z,8906.00
2022-08-30T09:52:03.774Z,8989.00
2022-08-30T09:53:03.350Z,8917.00
2022-08-30T09:54:19.085Z,8900.00
2022-08-30T09:55:04.732Z,8925.00
2022-08-30T09:56:03.724Z,8878.00
2022-08-30T09:57:03.055Z,8945.00
2022-08-30T09:58:02.948Z,8949.00
2022-08-30T09:59:03.091Z,8860.00
2022-08-30T10:00:03.042Z,8868.00
2022-08-30T10:01:03.441Z,8820.00
2022-08-30T10:02:03.701Z,8738.00
2022-08-30T10:03:03.638Z,8713.00
2022-08-30T10:04:03.618Z,8810.00
2022-08-30T10:05:03.594Z,8746.00
2022-08-30T10:06:03.608Z,8692.00
2022-08-30T10:07:03.483Z,8621.00
2022-08-30T10:08:03.613Z,8620.00
2022-08-30T10:09:03.537Z,8665.00
2022-08-30T10:10:03.517Z,8833.00
2022-08-30T10:11:04.742Z,8795.00
2022-08-30T10:12:03.502Z,8788.00
2022-08-30T10:13:03.507Z,8733.00
2022-08-30T10:14:03.502Z,8895.00
2022-08-30T10:15:02.932Z,8837.00
2022-08-30T10:16:03.503Z,8840.00
2022-08-30T10:17:02.859Z,8809.00
2022-08-30T10:18:02.655Z,8883.00
2022-08-30T10:19:06.203Z,9002.00
2022-08-30T10:20:03.205Z,8905.00
2022-08-30T10:21:03.004Z,9043.00
2022-08-30T10:22:03.356Z,9039.00
2022-08-30T10:23:03.363Z,9070.00
2022-08-30T10:24:02.596Z,9058.00
2022-08-30T10:25:02.616Z,9011.00
2022-08-30T10:26:03.306Z,9018.00
2022-08-30T10:27:03.355Z,9056.00
2022-08-30T10:28:03.269Z,9169.00
2022-08-30T10:29:03.270Z,9295.00
2022-08-30T10:30:02.638Z,9414.00
2022-08-30T10:31:03.270Z,9556.00
2022-08-30T10:34:14.363Z,0.00
2022-08-30T10:35:18.782Z,9439.00
2022-08-30T10:36:15.392Z,9501.00
2022-08-30T10:37:14.310Z,9602.00
2022-08-30T10:38:14.291Z,9600.00
2022-08-30T10:39:15.962Z,9657.00
2022-08-30T10:40:15.963Z,9671.00
2022-08-30T10:41:14.261Z,9662.00
2022-08-30T10:42:14.885Z,9684.00
2022-08-30T10:43:14.233Z,9455.00
2022-08-30T10:44:14.216Z,9462.00
2022-08-30T10:45:14.214Z,9565.00
2022-08-30T10:46:14.202Z,9612.00
2022-08-30T10:47:14.185Z,9574.00
2022-08-30T10:48:14.645Z,9479.00
2022-08-30T10:49:14.171Z,9374.00
2022-08-30T10:50:14.153Z,9556.00
2022-08-30T10:51:14.136Z,9698.00
2022-08-30T10:52:14.119Z,9597.00
2022-08-30T10:53:14.138Z,9819.00
2022-08-30T10:54:14.138Z,10051.00
2022-08-30T10:55:14.088Z,10289.00
2022-08-30T10:56:14.125Z,10579.00
2022-08-30T10:57:14.060Z,10627.00
2022-08-30T10:58:15.732Z,10576.00
2022-08-30T10:59:15.710Z,9064.00
2022-08-30T11:00:14.146Z,10356.00
2022-08-30T11:01:14.051Z,10720.00
2022-08-30T11:02:14.421Z,10670.00
2022-08-30T11:03:13.983Z,10612.00
2022-08-30T11:04:14.471Z,10340.00
2022-08-30T11:05:13.972Z,10723.00
2022-08-30T11:06:13.980Z,10858.00
2022-08-30T11:07:13.930Z,10884.00
2022-08-30T11:08:20.668Z,10905.00
2022-08-30T11:09:14.904Z,10838.00
2022-08-30T11:10:15.575Z,11089.00
2022-08-30T11:11:13.177Z,11083.00
2022-08-30T11:12:13.901Z,11156.00
2022-08-30T11:13:13.847Z,11257.00
2022-08-30T11:14:15.544Z,11297.00
2022-08-30T11:15:13.833Z,11381.00
2022-08-30T11:16:14.999Z,11378.00
2022-08-30T11:17:13.798Z,11388.00
2022-08-30T11:18:13.827Z,11300.00
2022-08-30T11:19:13.029Z,11232.00
2022-08-30T11:20:13.122Z,11191.00
2022-08-30T11:21:14.331Z,11070.00
2022-08-30T11:22:13.764Z,11033.00
2022-08-30T11:23:13.730Z,10931.00
2022-08-30T11:24:13.751Z,10949.00
2022-08-30T11:25:13.703Z,10675.00
2022-08-30T11:26:20.572Z,10860.00
2022-08-30T11:27:14.680Z,10779.00
2022-08-30T11:28:13.118Z,10960.00
2022-08-30T11:29:12.897Z,11042.00
2022-08-30T11:30:16.561Z,11015.00
2022-08-30T11:31:15.845Z,11092.00
2022-08-30T11:32:13.671Z,11075.00
2022-08-30T11:33:14.757Z,11019.00
2022-08-30T11:34:13.608Z,11031.00
2022-08-30T11:35:13.575Z,11049.00
2022-08-30T11:36:13.594Z,11029.00
2022-08-30T11:37:13.570Z,11099.00
2022-08-30T11:38:13.548Z,11068.00
2022-08-30T11:39:13.527Z,10996.00
2022-08-30T11:40:14.148Z,11015.00
2022-08-30T11:41:12.707Z,10951.00
2022-08-30T11:42:14.092Z,11278.00
2022-08-30T11:43:12.761Z,11305.00
2022-08-30T11:44:12.669Z,11417.00
2022-08-30T11:45:12.660Z,11693.00
2022-08-30T11:46:14.631Z,11710.00
2022-08-30T11:47:12.630Z,11483.00
2022-08-30T11:48:12.663Z,10434.00
2022-08-30T11:49:12.601Z,10027.00
2022-08-30T11:50:13.429Z,12492.00
2022-08-30T11:51:12.599Z,12691.00
2022-08-30T11:52:27.165Z,12535.00
2022-08-30T11:53:13.684Z,12636.00
2022-08-30T11:54:12.563Z,12939.00
2022-08-30T11:55:12.526Z,13295.00
2022-08-30T11:56:14.482Z,13232.00
2022-08-30T11:57:12.496Z,13345.00
2022-08-30T11:58:12.548Z,13335.00
2022-08-30T11:59:13.366Z,13245.00
2022-08-30T12:00:12.476Z,10955.00
2022-08-30T12:01:25.912Z,12293.00
2022-08-30T12:02:13.736Z,12553.00
2022-08-30T12:03:13.317Z,12585.00
2022-08-30T12:04:15.394Z,12305.00
2022-08-30T12:05:12.609Z,12201.00
2022-08-30T12:06:13.190Z,12054.00
2022-08-30T12:07:13.045Z,12292.00
2022-08-30T12:08:14.320Z,12412.00
2022-08-30T12:09:12.649Z,11893.00
2022-08-30T12:10:12.412Z,11933.00
2022-08-30T12:11:13.071Z,11979.00
2022-08-30T12:12:12.351Z,12192.00
2022-08-30T12:13:12.464Z,12538.00
2022-08-30T12:14:17.272Z,12633.00
2022-08-30T12:15:13.090Z,12508.00
2022-08-30T12:16:14.332Z,12395.00
2022-08-30T12:17:12.393Z,12212.00
2022-08-30T12:18:15.100Z,12015.00
2022-08-30T12:19:13.502Z,11823.00
2022-08-30T12:20:12.246Z,12411.00
2022-08-30T12:21:12.206Z,12533.00
2022-08-30T12:22:12.986Z,12430.00
2022-08-30T12:23:12.640Z,9973.00
2022-08-30T12:24:12.446Z,10768.00
2022-08-30T12:25:12.157Z,12578.00
2022-08-30T12:26:12.138Z,12825.00
2022-08-30T12:27:12.150Z,12965.00
2022-08-30T12:28:12.233Z,13071.00
2022-08-30T12:29:12.209Z,13115.00